createdAt,value
2018-12-14T00:02:29.943Z,15.70
2018-12-14T00:05:18.138Z,16.20
2018-12-14T00:08:05.633Z,15.00
2018-12-14T00:10:52.727Z,15.07
2018-12-14T00:13:40.079Z,15.23
2018-12-14T00:16:27.964Z,15.37
2018-12-14T00:19:15.890Z,15.80
2018-12-14T00:22:05.234Z,15.37
2018-12-14T00:24:52.631Z,22.48
2018-12-14T00:27:40.797Z,17.67
2018-12-14T00:30:28.654Z,14.77
2018-12-14T00:33:21.490Z,15.07
2018-12-14T00:36:18.112Z,15.47
2018-12-14T00:39:05.793Z,14.67
2018-12-14T00:41:52.684Z,14.40
2018-12-14T00:44:40.429Z,14.63
2018-12-14T00:47:27.669Z,15.00
2018-12-14T00:50:22.454Z,15.83
2018-12-14T00:53:12.845Z,15.07
2018-12-14T00:56:04.310Z,19.90
2018-12-14T00:58:51.959Z,16.40
2018-12-14T01:01:41.271Z,16.67
2018-12-14T01:04:28.838Z,14.77
2018-12-14T01:07:16.906Z,15.33
2018-12-14T01:10:07.970Z,15.90
2018-12-14T01:12:55.604Z,16.30
2018-12-14T01:15:42.675Z,23.00
2018-12-14T01:18:29.687Z,18.23
2018-12-14T01:21:16.475Z,17.37
2018-12-14T01:24:04.531Z,16.00
2018-12-14T01:26:52.691Z,15.67
2018-12-14T01:29:41.074Z,16.27
2018-12-14T01:32:28.573Z,16.30
2018-12-14T01:35:15.389Z,24.70
2018-12-14T01:38:02.672Z,18.03
2018-12-14T01:40:50.031Z,17.57
2018-12-14T01:43:36.905Z,16.10
2018-12-14T01:46:23.654Z,17.90
2018-12-14T01:49:11.243Z,23.42
2018-12-14T01:51:58.706Z,19.43
2018-12-14T01:54:45.922Z,17.37
2018-12-14T01:57:33.377Z,16.87
2018-12-14T02:00:20.867Z,17.00
2018-12-14T02:03:08.472Z,17.53
2018-12-14T02:05:55.805Z,16.90
2018-12-14T02:08:43.636Z,16.83
2018-12-14T02:11:30.794Z,17.43
2018-12-14T02:14:18.212Z,17.23
2018-12-14T02:17:05.473Z,16.80
2018-12-14T02:19:52.980Z,17.33
2018-12-14T02:22:40.204Z,26.02
2018-12-14T02:25:27.121Z,18.90
2018-12-14T02:28:16.193Z,17.93
2018-12-14T02:31:04.245Z,19.57
2018-12-14T02:33:52.253Z,17.53
2018-12-14T02:36:39.798Z,16.37
2018-12-14T02:39:26.846Z,18.13
2018-12-14T02:42:19.268Z,25.33
2018-12-14T02:45:16.597Z,18.53
2018-12-14T02:48:04.655Z,17.67
2018-12-14T02:54:06.976Z,17.63
2018-12-14T02:56:54.726Z,16.53
2018-12-14T02:59:45.433Z,16.63
2018-12-14T03:02:34.616Z,17.30
2018-12-14T03:05:22.225Z,17.53
2018-12-14T03:08:09.841Z,16.57
2018-12-14T03:10:57.900Z,15.53
2018-12-14T03:13:47.365Z,22.58
2018-12-14T03:16:35.058Z,17.10
2018-12-14T03:19:26.430Z,15.37
2018-12-14T03:22:17.210Z,15.07
2018-12-14T03:25:04.612Z,15.00
2018-12-14T03:27:51.821Z,14.10
2018-12-14T03:30:39.672Z,14.93
2018-12-14T03:33:29.404Z,14.57
2018-12-14T03:36:27.707Z,20.25
2018-12-14T03:39:14.282Z,14.70
2018-12-14T03:42:04.580Z,14.67
2018-12-14T03:44:51.752Z,15.27
2018-12-14T03:47:38.663Z,15.33
2018-12-14T03:50:25.681Z,13.50
2018-12-14T03:53:13.147Z,14.47
2018-12-14T03:56:00.596Z,13.03
2018-12-14T03:58:47.489Z,12.90
2018-12-14T04:01:35.066Z,13.27
2018-12-14T04:04:22.095Z,13.43
2018-12-14T04:07:09.909Z,12.87
2018-12-14T04:10:00.301Z,12.77
2018-12-14T04:12:47.828Z,12.90
2018-12-14T04:15:36.148Z,12.87
2018-12-14T04:18:23.593Z,12.20
2018-12-14T04:21:14.258Z,13.90
2018-12-14T04:24:01.257Z,13.17
2018-12-14T04:26:51.278Z,13.17
2018-12-14T04:29:40.147Z,13.40
2018-12-14T04:32:26.782Z,13.43
2018-12-14T04:35:13.592Z,13.40
2018-12-14T04:38:01.230Z,14.40
2018-12-14T04:40:53.719Z,20.08
2018-12-14T04:43:41.133Z,14.90
2018-12-14T04:46:27.970Z,21.65
2018-12-14T04:49:16.721Z,16.27
2018-12-14T04:52:04.238Z,15.90
2018-12-14T04:54:54.088Z,15.30
2018-12-14T04:57:42.525Z,15.40
2018-12-14T05:00:29.873Z,15.20
2018-12-14T05:03:21.257Z,15.27
2018-12-14T05:06:10.256Z,15.57
2018-12-14T05:09:00.764Z,22.45
2018-12-14T05:11:48.369Z,16.80
2018-12-14T05:14:35.395Z,15.40
2018-12-14T05:17:22.365Z,16.00
2018-12-14T05:20:09.856Z,14.77
2018-12-14T05:23:06.152Z,14.70
2018-12-14T05:25:53.783Z,14.77
2018-12-14T05:28:41.004Z,16.17
2018-12-14T05:31:28.707Z,15.23
2018-12-14T05:34:16.863Z,15.57
2018-12-14T05:37:03.783Z,16.20
2018-12-14T05:39:53.422Z,14.77
2018-12-14T05:43:02.374Z,16.57
2018-12-14T05:45:43.166Z,15.77
2018-12-14T05:48:32.022Z,15.63
2018-12-14T05:51:19.214Z,15.67
2018-12-14T05:54:06.221Z,14.87
2018-12-14T05:56:53.603Z,16.27
2018-12-14T05:59:56.790Z,23.17
2018-12-14T06:02:43.779Z,19.33
2018-12-14T06:05:31.060Z,17.37
2018-12-14T06:08:18.812Z,17.17
2018-12-14T06:11:06.222Z,16.73
2018-12-14T06:14:05.075Z,16.50
2018-12-14T06:16:53.447Z,17.50
2018-12-14T06:19:40.710Z,17.57
2018-12-14T06:22:28.012Z,17.80
2018-12-14T06:25:15.983Z,17.27
2018-12-14T06:28:05.364Z,18.07
2018-12-14T06:30:54.997Z,19.13
2018-12-14T06:33:45.991Z,18.20
2018-12-14T06:36:33.206Z,18.43
2018-12-14T06:39:20.093Z,20.43
2018-12-14T06:42:08.392Z,17.87
2018-12-14T06:44:56.155Z,27.65
2018-12-14T06:47:45.427Z,20.73
2018-12-14T06:50:34.106Z,20.17
2018-12-14T06:53:21.731Z,19.73
2018-12-14T06:56:09.762Z,18.67
2018-12-14T06:58:57.041Z,20.30
2018-12-14T07:01:44.261Z,18.93
2018-12-14T07:04:32.384Z,19.90
2018-12-14T07:07:19.795Z,19.50
2018-12-14T07:10:07.881Z,20.37
2018-12-14T07:12:56.908Z,19.83
2018-12-14T07:15:44.164Z,19.93
2018-12-14T07:18:31.502Z,19.83
2018-12-14T07:21:20.028Z,20.40
2018-12-14T07:27:13.752Z,20.83
2018-12-14T07:30:01.401Z,29.73
2018-12-14T07:32:50.123Z,22.60
2018-12-14T07:35:41.982Z,22.27
2018-12-14T07:38:25.990Z,20.77
2018-12-14T07:41:13.835Z,22.70
2018-12-14T07:44:01.465Z,21.17
2018-12-14T07:46:48.934Z,19.70
2018-12-14T07:49:37.731Z,20.80
2018-12-14T07:52:26.717Z,29.42
2018-12-14T07:55:14.464Z,22.47
2018-12-14T07:58:01.613Z,21.73
2018-12-14T08:03:54.399Z,19.20
2018-12-14T08:06:41.005Z,20.83
2018-12-14T08:09:28.636Z,19.10
2018-12-14T08:12:19.079Z,18.70
2018-12-14T08:15:13.731Z,18.73
2018-12-14T08:21:09.300Z,19.30
2018-12-14T08:23:56.661Z,26.52
2018-12-14T08:26:43.839Z,22.67
2018-12-14T08:29:31.287Z,20.43
2018-12-14T08:32:20.422Z,30.67
2018-12-14T08:35:10.514Z,62.00
2018-12-14T08:37:57.114Z,26.97
2018-12-14T08:40:43.956Z,24.50
2018-12-14T08:43:30.934Z,18.17
2018-12-14T08:46:18.181Z,17.40
2018-12-14T08:49:05.004Z,15.83
2018-12-14T08:51:52.297Z,19.37
2018-12-14T08:54:39.427Z,17.53
2018-12-14T08:57:26.461Z,16.30
2018-12-14T09:00:13.597Z,16.77
2018-12-14T09:03:01.960Z,16.40
2018-12-14T09:05:49.379Z,16.13
2018-12-14T09:08:36.270Z,16.63
2018-12-14T09:11:24.436Z,14.77
2018-12-14T09:14:12.120Z,15.07
2018-12-14T09:16:59.029Z,13.77
2018-12-14T09:19:46.192Z,15.60
2018-12-14T09:22:34.044Z,14.47
2018-12-14T09:28:27.172Z,14.60
2018-12-14T09:31:18.174Z,14.00
2018-12-14T09:34:08.344Z,13.77
2018-12-14T09:36:55.185Z,13.80
2018-12-14T09:39:42.953Z,15.00
2018-12-14T09:42:29.890Z,12.53
2018-12-14T09:45:16.751Z,14.10
2018-12-14T09:48:04.459Z,17.70
2018-12-14T09:51:00.783Z,14.53
2018-12-14T09:53:49.197Z,18.90
2018-12-14T09:56:37.070Z,13.43
2018-12-14T09:59:24.078Z,15.30
2018-12-14T10:02:11.219Z,13.37
2018-12-14T10:04:58.576Z,13.07
2018-12-14T10:07:46.993Z,12.83
2018-12-14T10:16:48.534Z,12.47
2018-12-14T10:19:35.881Z,12.90
2018-12-14T10:22:25.591Z,13.13
2018-12-14T10:25:12.828Z,13.03
2018-12-14T10:27:59.989Z,13.93
2018-12-14T10:30:47.004Z,13.20
2018-12-14T10:33:34.329Z,13.83
2018-12-14T10:36:21.719Z,13.53
2018-12-14T10:39:08.809Z,14.40
2018-12-14T10:41:56.144Z,14.47
2018-12-14T10:44:43.924Z,13.23
2018-12-14T10:47:30.783Z,18.37
2018-12-14T10:50:18.007Z,15.07
2018-12-14T10:53:05.490Z,13.63
2018-12-14T10:55:55.600Z,14.53
2018-12-14T10:58:42.891Z,13.40
2018-12-14T11:01:50.829Z,14.23
2018-12-14T11:04:38.701Z,13.60
2018-12-14T11:07:27.087Z,13.87
2018-12-14T11:10:14.344Z,13.63
2018-12-14T11:13:01.990Z,12.47
2018-12-14T11:15:53.899Z,14.57
2018-12-14T11:18:41.133Z,14.20
2018-12-14T11:24:37.372Z,13.93
2018-12-14T11:27:28.219Z,13.90
2018-12-14T11:30:15.270Z,13.37
2018-12-14T11:33:02.386Z,14.97
2018-12-14T11:35:58.232Z,18.60
2018-12-14T11:38:51.888Z,14.17
2018-12-14T11:41:38.845Z,13.37
2018-12-14T11:44:27.046Z,13.80
2018-12-14T11:47:18.300Z,13.30
2018-12-14T11:50:20.101Z,13.97
2018-12-14T11:53:08.140Z,18.08
2018-12-14T11:55:55.468Z,14.83
2018-12-14T11:58:42.965Z,14.53
2018-12-14T12:01:32.278Z,14.43
2018-12-14T12:04:19.177Z,19.02
2018-12-14T12:07:06.112Z,14.50
2018-12-14T12:09:59.885Z,14.13
2018-12-14T12:12:57.189Z,18.95
2018-12-14T12:15:44.786Z,20.25
2018-12-14T12:18:31.771Z,16.67
2018-12-14T12:21:19.259Z,19.33
2018-12-14T12:27:13.545Z,18.90
2018-12-14T12:30:01.074Z,17.57
2018-12-14T12:32:48.401Z,18.10
2018-12-14T12:35:35.369Z,16.70
2018-12-14T12:38:24.256Z,17.93
2018-12-14T12:41:13.847Z,15.07
2018-12-14T12:44:00.904Z,16.30
2018-12-14T12:46:47.968Z,19.20
2018-12-14T12:49:35.494Z,20.37
2018-12-14T12:52:22.291Z,23.73
2018-12-14T12:55:10.467Z,22.80
2018-12-14T12:58:05.280Z,22.43
2018-12-14T13:03:59.033Z,16.60
2018-12-14T13:06:46.507Z,17.80
2018-12-14T13:09:33.837Z,23.23
2018-12-14T13:12:21.218Z,17.93
2018-12-14T13:15:08.397Z,17.03
2018-12-14T13:17:55.189Z,17.40
2018-12-14T13:20:42.136Z,16.83
2018-12-14T13:23:29.572Z,22.75
2018-12-14T13:26:16.523Z,17.77
2018-12-14T13:29:03.811Z,23.98
2018-12-14T13:31:50.984Z,18.83
2018-12-14T13:34:38.708Z,17.87
2018-12-14T13:37:25.725Z,16.20
2018-12-14T13:40:14.193Z,16.53
2018-12-14T13:43:01.342Z,22.80
2018-12-14T13:45:48.655Z,18.43
2018-12-14T13:48:36.743Z,17.80
2018-12-14T13:51:24.052Z,17.17
2018-12-14T13:54:11.122Z,18.20
2018-12-14T13:57:02.600Z,16.00
2018-12-14T13:59:49.789Z,17.80
2018-12-14T14:02:37.032Z,17.03
2018-12-14T14:05:26.095Z,18.17
2018-12-14T14:08:13.111Z,18.13
2018-12-14T14:11:00.525Z,24.90
2018-12-14T14:16:54.940Z,17.50
2018-12-14T14:19:42.508Z,19.10
2018-12-14T14:22:38.257Z,18.50
2018-12-14T14:25:25.765Z,17.43
2018-12-14T14:28:13.468Z,18.33
2018-12-14T14:31:01.191Z,18.10
2018-12-14T14:33:54.606Z,18.63
2018-12-14T14:36:47.067Z,25.52
2018-12-14T14:39:34.920Z,18.37
2018-12-14T14:42:24.269Z,25.20
2018-12-14T14:45:13.543Z,19.73
2018-12-14T14:48:01.054Z,20.07
2018-12-14T14:50:49.029Z,17.90
2018-12-14T14:53:37.566Z,19.10
2018-12-14T14:56:25.253Z,19.10
2018-12-14T14:59:12.601Z,26.40
2018-12-14T15:02:03.987Z,23.20
2018-12-14T15:04:54.124Z,20.80
2018-12-14T15:07:49.461Z,19.93
2018-12-14T15:10:40.851Z,19.60
2018-12-14T15:13:28.132Z,19.33
2018-12-14T15:16:17.691Z,19.43
2018-12-14T15:19:04.991Z,27.15
2018-12-14T15:21:54.964Z,20.10
2018-12-14T15:24:41.914Z,19.83
2018-12-14T15:27:29.906Z,26.85
2018-12-14T15:30:16.633Z,19.23
2018-12-14T15:33:04.099Z,26.83
2018-12-14T15:35:52.126Z,21.17
2018-12-14T15:38:40.474Z,19.83
2018-12-14T15:41:28.525Z,19.27
2018-12-14T15:47:26.057Z,20.43
2018-12-14T15:50:12.954Z,19.57
2018-12-14T15:53:02.933Z,19.53
2018-12-14T15:55:50.222Z,18.83
2018-12-14T15:58:37.478Z,20.80
2018-12-14T16:01:24.690Z,18.90
2018-12-14T16:07:17.845Z,27.55
2018-12-14T16:10:05.515Z,21.90
2018-12-14T16:12:52.991Z,19.13
2018-12-14T16:15:40.447Z,18.73
2018-12-14T16:18:37.589Z,17.87
2018-12-14T16:21:27.012Z,19.33
2018-12-14T16:24:14.855Z,18.67
2018-12-14T16:27:02.208Z,21.27
2018-12-14T16:29:50.594Z,27.20
2018-12-14T16:32:37.785Z,34.90
2018-12-14T16:35:25.655Z,36.80
2018-12-14T16:38:13.896Z,32.13
2018-12-14T16:41:05.809Z,24.70
2018-12-14T16:43:53.307Z,19.60
2018-12-14T16:46:45.652Z,18.87
2018-12-14T16:49:34.587Z,18.47
2018-12-14T16:52:22.226Z,18.67
2018-12-14T16:55:12.208Z,19.33
2018-12-14T16:57:59.360Z,19.23
2018-12-14T17:00:46.825Z,19.40
2018-12-14T17:03:34.673Z,28.02
2018-12-14T17:06:21.934Z,20.70
2018-12-14T17:09:08.894Z,27.67
2018-12-14T17:11:55.880Z,23.07
2018-12-14T17:14:43.379Z,20.10
2018-12-14T17:17:32.039Z,21.27
2018-12-14T17:20:19.126Z,20.83
2018-12-14T17:23:06.980Z,21.47
2018-12-14T17:25:54.701Z,21.67
2018-12-14T17:28:45.364Z,21.27
2018-12-14T17:31:32.558Z,22.37
2018-12-14T17:34:19.809Z,21.27
2018-12-14T17:37:07.109Z,22.60
2018-12-14T17:39:54.899Z,22.23
2018-12-14T17:42:41.778Z,22.60
2018-12-14T17:45:28.941Z,22.60
2018-12-14T17:48:18.746Z,24.03
2018-12-14T17:51:06.142Z,22.47
2018-12-14T17:53:56.024Z,22.30
2018-12-14T17:56:44.366Z,23.23
2018-12-14T17:59:31.709Z,24.53
2018-12-14T18:02:22.254Z,38.03
2018-12-14T18:05:09.525Z,27.60
2018-12-14T18:07:56.820Z,27.70
2018-12-14T18:10:44.655Z,28.00
2018-12-14T18:13:32.231Z,30.20
2018-12-14T18:16:19.616Z,30.77
2018-12-14T18:19:08.151Z,26.53
2018-12-14T18:21:57.826Z,31.60
2018-12-14T18:24:45.214Z,31.27
2018-12-14T18:27:33.194Z,25.20
2018-12-14T18:30:24.992Z,24.77
2018-12-14T18:33:14.286Z,25.80
2018-12-14T18:42:31.996Z,26.80
2018-12-14T18:45:21.373Z,37.33
2018-12-14T18:48:09.180Z,27.83
2018-12-14T18:54:07.385Z,24.37
2018-12-14T18:57:06.163Z,24.60
2018-12-14T18:59:53.258Z,26.33
2018-12-14T19:02:43.233Z,26.77
2018-12-14T19:05:32.882Z,25.20
2018-12-14T19:08:21.456Z,25.73
2018-12-14T19:11:08.988Z,26.00
2018-12-14T19:13:55.968Z,27.97
2018-12-14T19:16:45.302Z,24.73
2018-12-14T19:19:34.517Z,30.83
2018-12-14T19:22:26.375Z,26.57
2018-12-14T19:25:14.034Z,25.80
2018-12-14T19:28:01.766Z,36.22
2018-12-14T19:30:49.472Z,27.97
2018-12-14T19:33:38.578Z,28.57
2018-12-14T19:36:29.111Z,26.13
2018-12-14T19:39:16.517Z,25.03
2018-12-14T19:42:06.689Z,35.95
2018-12-14T19:44:56.405Z,31.43
2018-12-14T19:47:45.106Z,27.87
2018-12-14T19:50:32.938Z,29.97
2018-12-14T19:53:22.280Z,29.47
2018-12-14T19:56:09.807Z,42.67
2018-12-14T19:58:59.297Z,27.67
2018-12-14T20:01:55.089Z,27.53
2018-12-14T20:04:48.278Z,26.87
2018-12-14T20:07:36.897Z,26.23
2018-12-14T20:10:24.145Z,27.20
2018-12-14T20:13:12.789Z,27.47
2018-12-14T20:16:01.569Z,25.43
2018-12-14T20:19:02.840Z,27.80
2018-12-14T20:21:50.030Z,27.97
2018-12-14T20:24:37.133Z,27.37
2018-12-14T20:27:25.036Z,27.43
2018-12-14T20:30:14.923Z,26.20
2018-12-14T20:33:03.147Z,26.23
2018-12-14T20:35:54.387Z,35.08
2018-12-14T20:38:43.696Z,29.67
2018-12-14T20:41:31.378Z,26.30
2018-12-14T20:44:18.322Z,26.97
2018-12-14T20:47:05.673Z,27.43
2018-12-14T20:49:55.579Z,27.70
2018-12-14T20:52:45.339Z,27.00
2018-12-14T20:55:32.045Z,26.93
2018-12-14T20:58:19.592Z,27.57
2018-12-14T21:01:07.250Z,24.53
2018-12-14T21:03:54.767Z,26.97
2018-12-14T21:06:41.609Z,26.43
2018-12-14T21:09:28.711Z,37.05
2018-12-14T21:12:16.197Z,30.07
2018-12-14T21:15:13.764Z,28.20
2018-12-14T21:18:01.560Z,26.23
2018-12-14T21:20:48.425Z,26.73
2018-12-14T21:23:37.580Z,26.73
2018-12-14T21:26:27.047Z,37.25
2018-12-14T21:29:16.147Z,28.77
2018-12-14T21:32:03.079Z,27.93
2018-12-14T21:34:51.074Z,26.10
2018-12-14T21:37:38.521Z,27.03
2018-12-14T21:40:25.840Z,26.67
2018-12-14T21:43:14.586Z,26.67
2018-12-14T21:46:01.974Z,27.23
2018-12-14T21:48:50.538Z,29.63
2018-12-14T21:51:37.660Z,27.07
2018-12-14T21:54:25.265Z,39.85
2018-12-14T21:57:15.548Z,29.03
2018-12-14T22:00:04.704Z,26.67
2018-12-14T22:02:53.089Z,26.20
2018-12-14T22:05:40.277Z,28.27
2018-12-14T22:08:30.033Z,27.83
2018-12-14T22:11:16.937Z,27.63
2018-12-14T22:14:04.351Z,39.10
2018-12-14T22:16:51.858Z,39.50
2018-12-14T22:19:41.205Z,29.27
2018-12-14T22:22:28.728Z,38.22
2018-12-14T22:25:16.310Z,37.00
2018-12-14T22:28:03.719Z,30.03
2018-12-14T22:30:51.107Z,28.20
2018-12-14T22:33:38.290Z,26.87
2018-12-14T22:36:25.965Z,38.25
2018-12-14T22:39:15.931Z,29.07
2018-12-14T22:42:03.507Z,27.60
2018-12-14T22:44:51.125Z,28.87
2018-12-14T22:47:38.413Z,24.87
2018-12-14T22:50:25.932Z,26.47
2018-12-14T22:53:15.776Z,27.43
2018-12-14T22:56:02.942Z,28.60
2018-12-14T22:58:52.095Z,26.53
2018-12-14T23:01:39.394Z,26.77
2018-12-14T23:04:26.873Z,27.60
2018-12-14T23:07:14.090Z,27.53
2018-12-14T23:10:01.841Z,26.80
2018-12-14T23:12:50.965Z,26.40
2018-12-14T23:15:39.370Z,25.63
2018-12-14T23:18:26.919Z,27.27
2018-12-14T23:24:22.946Z,27.17
2018-12-14T23:27:10.886Z,26.53
2018-12-14T23:29:58.807Z,25.40
2018-12-14T23:32:46.084Z,26.17
2018-12-14T23:35:35.295Z,23.90
2018-12-14T23:38:24.696Z,25.63
2018-12-14T23:41:12.600Z,24.07
2018-12-14T23:44:00.844Z,24.80
2018-12-14T23:46:48.778Z,23.33
2018-12-14T23:49:39.589Z,24.63
2018-12-14T23:52:23.753Z,26.03
2018-12-14T23:55:10.491Z,23.80
2018-12-14T23:57:57.794Z,25.87
